Terminal Aerodrome Forecast
Issued by NWS

Home | Current Version | Previous Version | Text Only | Print | Product List | Glossary On
Versions: 1 2 3 4 5 6 7 8 9 10 11 12 13 14 15 16 17 18 19 20
000
FTUS43 KGRB 250700 AAB
TAFATW
TAF AMD
KATW 250709Z 2507/2606 12009KT 5SM -RA SCT020 OVC030
     FM250900 16006KT 5SM BR SCT008 OVC015
     FM251100 VRB03KT 2SM BR BKN008 OVC015
     FM251300 28008KT P6SM BKN025 BKN040
     FM251800 26015G26KT P6SM SCT035 BKN050 PROB30 2518/2524 -SHRA
      BKN025
     FM260100 33010KT P6SM SCT040=

USA.gov is the U.S. government's official web portal to all federal, state and local government web resources and services.